Big Rapids, Michigan
Current Conditions -  °F | °C
As of 5:14 PM on Wednesday 28 Jan 2015 (Local Time) from KRQB Reporting Station
Clear Clear  
Wind Chill: 21°   Ceiling: Unl
Heat Index: 29°   Visibility: 10mi
Dew Point: 10°   Wind: 9mph
Humidity: 45%   Direction: 160°SSE
Pressure: 30.13"   Gusts: NA
Location:  43.7°N, 85.48°W
Report Text: KRQB 282214Z AUTO 16008KT 10SM CLR M01/M12 A3013 RMK AO2 T10151122
Loading
Personal Weather Stations






























Interactive Weather Map New forecast layout! Learn more

10-Day Weather Forecast

Advertisements
Track Severe Weather on mobile